Briefing drone pour Pont-de-l'arche

Rechercher une autre localisation

Conditions de vol :


Nous sommes le : Samedi 02 juillet 2022
Il est 23:08 UTC (01:08 LT)

Lever de soleil : 03:29 UTC (05:29 LT)
Coucher de soleil : 20:29 UTC (22:29 LT)

Météo

L'essentiel des conditions de vol

VIGILANCE MÉTÉO FRANCE - Eure (27)
Pas de vigilances particulieres
CARTE TEMSI
CARTES DES FRONTS
METAR de LFOP
LFOP 012300Z AUTO 05004KT CAVOK 12/09 Q1022

Date d'émission: 01/07/2022
Heure d'émission: 23:00 UTC
Vent: 050° pour 4 KT (7 km/h)
Visibilité horizontale: > 10 km
Plafond : Plafond et visibilité OK (CAVOK)
Température: 12 °C
Point de rosée: 9 °C
Humidité: 82%
Pression (QNH): 1022 hPa
TAF de LFOP
LFOP 012000Z 0120/0218 CNL

Conditions prévues :

Heure d'émission : Bulletin éffectué le 01 à 20:00 UTC
Prévision : Valide du 01 a 20:00 UTC au 02 a 18:00 UTC
Nuages : à 0ft (0 m)
WEBCAM POUR PONT-DE-L'ARCHE

Réglementation

Voler en sécurité

CARTES AERONAUTIQUE 1/500.000
CARTES VAC (LFOP)
SUP AIP




Chargement des AIP...
NOTAM (PONT-DE-L'ARCHE + Terrain à proximité / FIR )




Chargement des NOTAMS...
CONTACT PREFECTURE 27


Avertissement : Les données mises à disposition sont indicatives. Oxygène Drone ne pourra être tenu responsable de dégâts causés aux biens et aux personnes.